Latest Weather Observations for Cerberus

IDV60801

Issued at 9:02 am EST Wednesday 22 September 2021 (issued every 10 minutes, with the page automatically refreshed every 10 minutes)

About weather observations | Map of weather stations | Latest weather observations for VIC | Other Formats
Station Details ID: 086361 Name: CERBERUS Lat: -38.36 Lon: 145.18 Height: 12.69 m
Data from the previous 72 hours. | See also: Recent months at Cerberus
Date/Time
EST
Temp
°C
App
Temp
°C
Dew
Point
°C
Rel
Hum
%
Delta-T
°C
Wind Press
QNH
hPa
Press
MSL
hPa
Rain since
9am
mm
Dir  Spd
km/h
Gust
km/h
Spd
kts
Gust
kts
22/09:00am 12.5 11.5 11.1 91 0.7 W 7 15 4 8 1025.9 1025.9 2.4
22/08:30am 12.0 10.5 10.6 91 0.7 WSW 9 13 5 7 1025.9 1025.9 2.4
22/08:00am 11.6 10.6 10.2 91 0.7 WNW 6 7 3 4 1025.8 1025.8 2.4
22/07:30am 11.4 10.3 9.8 90 0.8 WNW 6 9 3 5 1025.8 1025.8 2.4
22/07:00am 11.1 10.3 9.7 91 0.7 WSW 4 6 2 3 1025.6 1025.6 2.2
22/06:30am 10.9 9.5 9.5 91 0.7 W 7 13 4 7 1025.1 1025.1 2.2
22/06:00am 10.7 9.4 9.3 91 0.7 WNW 6 11 3 6 1024.9 1024.9 2.2
22/05:30am 10.8 9.6 9.4 91 0.7 WNW 6 9 3 5 1024.7 1024.7 2.2
22/05:00am 10.6 9.1 9.0 90 0.8 WSW 7 17 4 9 1024.4 1024.4 2.2
22/04:30am 10.5 8.9 8.9 90 0.8 W 7 13 4 7 1024.3 1024.3 2.2
22/04:00am 10.4 7.7 8.8 90 0.8 W 13 17 7 9 1024.0 1024.0 2.2
22/03:30am 10.4 8.4 8.8 90 0.8 W 9 13 5 7 1024.4 1024.4 2.2
22/03:00am 10.8 8.9 9.2 90 0.8 W 9 15 5 8 1024.7 1024.7 2.0
22/02:30am 10.8 9.3 9.2 90 0.8 W 7 13 4 7 1024.8 1024.8 2.0
22/02:00am 10.7 9.2 9.1 90 0.8 W 7 11 4 6 1024.9 1024.9 1.4
22/01:30am 10.8 9.5 9.2 90 0.8 WNW 6 9 3 5 1025.2 1025.2 1.0
22/01:00am 10.6 9.0 8.9 89 0.8 W 7 13 4 7 1025.4 1025.4 0.6
22/12:30am 10.7 8.8 9.0 89 0.8 WNW 9 15 5 8 1025.5 1025.5 0.6
22/12:00am 10.7 8.4 9.0 89 0.8 WNW 11 19 6 10 1025.6 1025.6 0.6
 
Date/Time
EST
Temp
°C
App
Temp
°C
Dew
Point
°C
Rel
Hum
%
Delta-T
°C
Wind Press
QNH
hPa
Press
MSL
hPa
Rain since
9am
mm
Dir  Spd
km/h
Gust
km/h
Spd
kts
Gust
kts
21/11:30pm 10.7 8.0 8.8 88 0.9 WNW 13 19 7 10 1025.6 1025.6 0.2
21/11:00pm 10.7 7.9 8.6 87 1.0 WNW 13 20 7 11 1025.6 1025.6 0.2
21/10:30pm 10.8 8.0 8.6 86 1.1 WNW 13 20 7 11 1025.7 1025.7 0.2
21/10:00pm 10.7 7.5 8.5 86 1.1 NW 15 20 8 11 1026.0 1026.0 0.2
21/09:30pm 10.5 8.0 8.1 85 1.2 WNW 11 19 6 10 1026.2 1026.2 0.2
21/09:00pm 10.2 8.0 7.8 85 1.1 NW 9 13 5 7 1026.2 1026.2 0.2
21/08:30pm 10.2 7.2 7.6 84 1.2 NW 13 20 7 11 1026.4 1026.4 0.0
21/08:00pm 10.4 8.1 7.3 81 1.5 WNW 9 19 5 10 1026.7 1026.7 0.0
21/07:30pm 10.2 7.7 6.5 78 1.7 WNW 9 17 5 9 1026.4 1026.4 0.0
21/07:00pm 10.2 7.2 5.8 74 2.0 W 11 19 6 10 1026.6 1026.6 0.0
21/06:30pm 10.7 8.4 5.7 71 2.3 WNW 7 11 4 6 1026.4 1026.4 0.0
21/06:00pm 11.0 7.6 5.7 70 2.4 W 13 19 7 10 1026.1 1026.1 0.0
21/05:30pm 11.1 8.8 5.6 69 2.5 WSW 7 11 4 6 1026.0 1026.0 0.0
21/05:00pm 11.1 7.9 5.2 67 2.7 W 11 20 6 11 1025.5 1025.5 0.0
21/04:30pm 11.6 7.5 4.6 62 3.2 WSW 15 22 8 12 1025.4 1025.4 0.0
21/04:00pm 11.7 6.9 4.4 61 3.3 WSW 19 28 10 15 1025.5 1025.5 0.0
21/03:30pm 11.6 6.2 4.6 62 3.2 WSW 22 32 12 17 1025.6 1025.6 0.0
21/03:00pm 12.8 7.6 3.7 54 4.1 SW 20 32 11 17 1025.5 1025.5 0.0
21/02:30pm 13.4 7.1 3.5 51 4.4 SW 26 39 14 21 1025.6 1025.6 0.0
21/02:00pm 12.1 6.0 2.6 52 4.1 WSW 24 37 13 20 1025.8 1025.8 0.0
21/01:30pm 12.0 5.7 4.0 58 3.6 SW 26 41 14 22 1025.8 1025.8 0.0
21/01:00pm 12.6 7.0 3.3 53 4.1 SW 22 41 12 22 1025.7 1025.7 0.0
21/12:30pm 11.7 5.4 4.0 59 3.4 SW 26 39 14 21 1025.6 1025.6 0.0
21/12:00pm 12.2 6.3 3.7 56 3.8 SW 24 35 13 19 1025.3 1025.3 0.0
21/11:30am 12.7 6.6 2.6 50 4.4 SW 24 37 13 20 1025.1 1025.1 0.0
21/11:00am 12.2 5.8 3.4 55 3.9 SW 26 37 14 20 1024.8 1024.8 0.0
21/10:30am 11.0 5.0 3.5 60 3.3 SW 24 37 13 20 1024.9 1024.9 0.0
21/10:00am 11.7 5.4 3.7 58 3.5 SSW 26 39 14 21 1024.7 1024.7 0.0
21/09:30am 11.4 5.8 3.2 57 3.6 SSW 22 33 12 18 1024.5 1024.5 0.0
21/09:00am 11.3 5.4 3.8 60 3.3 SW 24 39 13 21 1024.2 1024.2 5.2
21/08:30am 10.5 4.5 3.3 61 3.1 SSW 24 39 13 21 1023.5 1023.5 5.2
21/08:00am 9.9 5.5 4.9 71 2.2 SSW 17 30 9 16 1022.9 1022.9 5.2
21/07:30am 10.4 4.4 3.4 62 3.1 SSW 24 39 13 21 1022.2 1022.2 5.2
21/07:00am 9.7 4.5 5.3 74 2.0 SSW 22 43 12 23 1021.8 1021.8 5.2
21/06:30am 8.8 3.8 4.8 76 1.8 SSW 20 33 11 18 1021.2 1021.2 5.2
21/06:00am 8.3 3.4 4.9 79 1.5 SSW 20 39 11 21 1021.0 1021.0 5.2
21/05:30am 8.9 3.9 4.7 75 1.9 SSW 20 33 11 18 1020.5 1020.5 5.2
21/05:12am 8.5 2.0 4.5 76 1.8 SSW 28 46 15 25 1020.1 1020.1 5.2
21/05:00am 9.5 2.9 4.3 70 2.3 SW 28 43 15 23 1019.8 1019.8 5.2
21/04:30am 8.8 4.0 4.8 76 1.8 SSW 19 28 10 15 1019.1 1019.1 5.2
21/04:00am 8.5 2.0 4.5 76 1.8 SSW 28 43 15 23 1018.7 1018.7 5.2
21/03:30am 9.4 3.9 4.0 69 2.4 SW 22 37 12 20 1018.3 1018.3 5.2
21/03:00am 9.1 2.5 4.1 71 2.2 SSW 28 46 15 25 1018.0 1018.0 5.2
21/02:57am 9.6 3.0 4.4 70 2.3 SW 28 46 15 25 1017.9 1017.9 5.2
21/02:30am 9.7 4.2 4.1 68 2.5 SSW 22 37 12 20 1017.6 1017.6 5.2
21/02:00am 9.5 3.7 4.5 71 2.2 SW 24 39 13 21 1017.5 1017.5 5.2
21/01:30am 9.3 4.3 4.7 73 2.0 SW 20 37 11 20 1017.4 1017.4 5.2
21/01:00am 8.8 3.2 5.2 78 1.6 SW 24 41 13 22 1017.0 1017.0 5.0
21/12:30am 7.4 2.0 4.7 83 1.2 S 22 39 12 21 1016.9 1016.9 4.8
21/12:00am 8.4 2.5 3.8 73 2.0 SW 24 43 13 23 1016.7 1016.7 3.4
 
Date/Time
EST
Temp
°C
App
Temp
°C
Dew
Point
°C
Rel
Hum
%
Delta-T
°C
Wind Press
QNH
hPa
Press
MSL
hPa
Rain since
9am
mm
Dir  Spd
km/h
Gust
km/h
Spd
kts
Gust
kts
20/11:30pm 8.7 2.9 4.5 75 1.9 SW 24 35 13 19 1016.5 1016.5 3.2
20/11:00pm 8.6 2.9 4.8 77 1.7 WSW 24 39 13 21 1016.3 1016.3 3.2
20/10:30pm 7.5 3.8 4.3 80 1.4 W 13 24 7 13 1016.0 1016.0 3.2
20/10:00pm 7.3 3.2 4.3 81 1.3 W 15 22 8 12 1015.5 1015.5 3.0
20/09:30pm 7.3 3.5 4.1 80 1.4 WNW 13 28 7 15 1015.3 1015.3 3.0
20/09:00pm 7.2 3.4 3.8 79 1.5 W 13 20 7 11 1014.9 1014.9 2.6
20/08:30pm 7.2 4.2 4.2 81 1.3 W 9 17 5 9 1014.8 1014.8 2.6
20/08:00pm 6.6 3.6 3.9 83 1.1 W 9 13 5 7 1014.3 1014.3 2.6
20/07:30pm 6.5 3.4 3.5 81 1.3 WNW 9 13 5 7 1013.8 1013.8 2.6
20/07:00pm 6.7 4.2 3.5 80 1.4 S 6 17 3 9 1013.6 1013.6 2.2
20/06:30pm 7.0 3.0 3.1 76 1.6 W 13 20 7 11 1013.0 1013.1 2.0
20/06:00pm 6.7 1.0 2.8 76 1.6 WSW 22 43 12 23 1012.5 1012.6 1.8
20/05:30pm 9.0 4.4 3.6 69 2.3 W 17 28 9 15 1011.6 1011.7 1.8
20/05:00pm 8.4 4.7 4.2 75 1.8 SW 13 22 7 12 1011.3 1011.4 1.8
20/04:30pm 9.2 5.6 5.0 75 1.9 W 13 22 7 12 1010.9 1010.9 1.8
20/04:00pm 8.5 4.8 4.3 75 1.8 WNW 13 19 7 10 1010.8 1010.8 1.8
20/03:30pm 7.9 2.7 3.8 75 1.8 W 20 37 11 20 1010.8 1010.8 1.8
20/03:00pm 9.8 4.8 3.5 65 2.7 W 19 32 10 17 1010.4 1010.4 1.6
20/02:30pm 10.7 6.2 5.9 72 2.2 W 19 28 10 15 1010.3 1010.3 1.6
20/02:00pm 8.8 5.2 5.2 78 1.6 W 13 22 7 12 1010.4 1010.4 1.6
20/01:33pm 11.1 3.6 3.4 59 3.4 WNW 32 76 17 41 1010.0 1010.0 0.6
20/01:30pm 11.4 4.7 3.7 59 3.4 WNW 28 43 15 23 1010.0 1010.0 0.6
20/01:00pm 11.9 6.6 4.9 62 3.2 W 22 32 12 17 1010.0 1010.0 0.6
20/12:30pm 12.3 5.1 5.2 62 3.3 WNW 32 54 17 29 1010.3 1010.3 0.6
20/12:00pm 11.0 4.7 5.5 69 2.5 W 28 48 15 26 1010.5 1010.5 0.6
20/11:55am 11.1 5.2 5.8 70 2.5 W 26 48 14 26 1010.5 1010.5 0.6
20/11:30am 10.5 6.8 6.3 75 2.0 W 15 24 8 13 1010.7 1010.7 0.6
20/11:00am 8.0 1.3 3.5 73 1.9 WSW 28 43 15 23 1011.2 1011.3 0.4
20/10:30am 11.9 5.3 4.4 60 3.4 W 28 41 15 22 1010.6 1010.6 0.0
20/10:00am 11.3 4.3 4.3 62 3.1 W 30 44 16 24 1010.7 1010.7 0.0
20/09:31am 11.1 4.7 5.2 67 2.7 W 28 48 15 26 1010.4 1010.4 0.0
20/09:30am 11.0 4.9 4.9 66 2.8 W 26 48 14 26 1010.4 1010.4 0.0
20/09:17am 10.2 3.7 4.6 68 2.5 WNW 28 46 15 25 1010.4 1010.4 0.0
20/09:00am 10.8 4.7 4.9 67 2.7 WNW 26 41 14 22 1010.5 1010.5 2.4
20/08:30am 10.7 5.1 5.3 69 2.5 WNW 24 37 13 20 1010.0 1010.0 2.4
20/08:00am 10.4 4.0 5.0 69 2.4 WNW 28 50 15 27 1009.7 1009.7 2.4
20/07:53am 10.3 3.5 4.9 69 2.4 WNW 30 50 16 27 1009.7 1009.7 2.4
20/07:30am 10.4 4.7 5.0 69 2.4 WNW 24 50 13 27 1009.9 1009.9 2.4
20/07:01am 10.2 3.7 4.8 69 2.4 WNW 28 46 15 25 1009.4 1009.4 2.4
20/07:00am 10.2 4.1 4.8 69 2.4 WNW 26 41 14 22 1009.4 1009.4 2.4
20/06:30am 10.2 4.5 5.0 70 2.3 WNW 24 39 13 21 1009.3 1009.3 2.4
20/06:00am 10.3 3.8 4.7 68 2.5 WNW 28 48 15 26 1009.0 1009.0 2.4
20/05:35am 10.3 3.4 4.7 68 2.5 WNW 30 48 16 26 1008.7 1008.7 2.4
20/05:30am 10.4 3.2 4.8 68 2.5 WNW 32 48 17 26 1008.6 1008.6 2.4
20/05:00am 10.8 4.3 4.9 67 2.7 WNW 28 46 15 25 1008.6 1008.6 2.4
20/04:30am 10.9 4.0 4.8 66 2.8 WNW 30 54 16 29 1008.4 1008.4 2.4
20/04:00am 11.4 5.0 5.3 66 2.8 WNW 28 56 15 30 1008.3 1008.3 2.4
20/03:30am 11.7 4.4 5.3 65 2.9 WNW 33 52 18 28 1008.2 1008.2 2.4
20/03:18am 11.9 5.6 5.5 65 3.0 WNW 28 48 15 26 1008.1 1008.1 2.4
20/03:00am 11.3 6.5 5.6 68 2.6 WNW 20 30 11 16 1008.4 1008.4 2.4
20/02:30am 10.9 6.2 5.2 68 2.6 WNW 19 32 10 17 1008.9 1008.9 2.4
20/02:00am 10.6 6.7 5.4 70 2.4 WNW 15 28 8 15 1009.3 1009.3 2.4
20/01:30am 11.0 6.5 6.2 72 2.2 WNW 19 30 10 16 1009.7 1009.7 2.4
20/01:00am 11.3 6.8 6.8 74 2.1 WNW 20 33 11 18 1010.0 1010.0 2.4
20/12:30am 11.5 6.9 8.2 80 1.6 WNW 22 35 12 19 1009.9 1009.9 2.4
20/12:00am 11.4 6.9 8.6 83 1.4 WNW 22 30 12 16 1010.2 1010.2 2.4
 
Date/Time
EST
Temp
°C
App
Temp
°C
Dew
Point
°C
Rel
Hum
%
Delta-T
°C
Wind Press
QNH
hPa
Press
MSL
hPa
Rain since
9am
mm
Dir  Spd
km/h
Gust
km/h
Spd
kts
Gust
kts
19/11:30pm 11.4 7.4 9.1 86 1.1 WNW 20 33 11 18 1010.2 1010.2 2.4
19/11:00pm 11.5 7.2 9.4 87 1.1 WNW 22 35 12 19 1010.5 1010.5 2.4
19/10:30pm 11.7 7.3 8.9 83 1.4 WNW 22 35 12 19 1010.4 1010.4 2.0
19/10:12pm 13.5 8.0 9.0 74 2.3 NW 28 48 15 26 1010.2 1010.2 1.0
19/10:00pm 14.8 10.0 9.0 68 3.0 NW 24 39 13 21 1009.5 1009.5 0.0
19/09:30pm 15.1 10.9 8.3 64 3.4 NNW 20 33 11 18 1009.7 1009.7 0.0
19/09:00pm 15.2 11.0 8.2 63 3.5 NNW 20 37 11 20 1009.9 1009.9 0.0
19/08:30pm 15.2 11.0 8.2 63 3.5 NNW 20 33 11 18 1010.4 1010.4 0.0
19/08:00pm 15.3 9.5 7.8 61 3.7 NNW 28 43 15 23 1010.2 1010.2 0.0
19/07:30pm 15.5 9.1 7.0 57 4.2 NNW 30 50 16 27 1010.0 1010.0 0.0
19/07:23pm 15.6 9.6 7.1 57 4.2 NNW 28 50 15 27 1010.0 1010.0 0.0
19/07:00pm 15.7 10.8 7.0 56 4.3 NNW 22 39 12 21 1010.1 1010.1 0.0
19/06:30pm 15.7 10.9 7.2 57 4.2 NW 22 39 12 21 1010.7 1010.7 0.0
19/06:00pm 16.3 10.2 6.4 52 4.8 NW 28 56 15 30 1010.5 1010.5 0.0
19/05:50pm 16.4 10.3 6.5 52 4.8 NNW 28 50 15 27 1010.3 1010.3 0.0
19/05:30pm 15.9 11.5 7.4 57 4.2 NNW 20 33 11 18 1010.5 1010.5 0.0
19/05:00pm 16.0 11.6 6.7 54 4.6 NNW 19 33 10 18 1010.7 1010.7 0.0
19/04:30pm 15.7 11.2 6.2 53 4.6 NNW 19 35 10 19 1010.8 1010.8 0.0
19/04:00pm 15.6 11.5 6.1 53 4.6 NNW 17 30 9 16 1010.8 1010.8 0.0
19/03:30pm 15.4 10.0 6.2 54 4.4 NNW 24 43 13 23 1010.9 1010.9 0.0
19/03:00pm 15.3 10.5 5.8 53 4.6 NNW 20 46 11 25 1011.3 1011.4 0.0
19/02:30pm 15.4 9.5 5.6 52 4.7 NNW 26 43 14 23 1011.5 1011.6 0.0
19/02:01pm 14.7 8.5 6.0 56 4.2 NNW 28 46 15 25 1011.9 1012.0 0.0
19/02:00pm 14.7 8.5 6.0 56 4.2 NNW 28 44 15 24 1011.9 1012.0 0.0
19/01:32pm 14.8 8.5 5.9 55 4.3 NNW 28 50 15 27 1012.0 1012.1 0.0
19/01:30pm 14.9 9.1 6.2 56 4.2 NNW 26 44 14 24 1011.9 1012.0 0.0
19/01:00pm 15.6 9.5 6.6 55 4.4 NNW 28 54 15 29 1012.5 1012.6 0.0
19/12:32pm 15.6 9.6 6.9 56 4.3 NNW 28 50 15 27 1013.1 1013.2 0.0
19/12:30pm 15.3 9.6 6.8 57 4.2 NNW 26 50 14 27 1013.1 1013.2 0.0
19/12:00pm 14.0 9.5 5.9 58 3.8 NNW 19 37 10 20 1013.9 1013.9 0.0
19/11:30am 14.0 9.5 6.1 59 3.8 NNW 19 35 10 19 1014.1 1014.1 0.0
19/11:00am 13.5 8.1 6.4 62 3.4 NNW 24 46 13 25 1014.3 1014.3 0.0
19/10:48am 13.2 6.9 5.6 60 3.6 NNW 28 48 15 26 1014.4 1014.4 0.0
19/10:30am 13.2 7.3 5.6 60 3.6 NNW 26 50 14 27 1014.3 1014.3 0.0
19/10:00am 12.4 6.4 5.3 62 3.3 N 26 43 14 23 1014.6 1014.6 0.0
19/09:30am 12.1 7.2 5.3 63 3.1 N 20 39 11 21 1015.2 1015.2 0.0

Other formats

Comma delimited format used in spreadsheet applications
http://www.bom.gov.au/fwo/IDV60801/IDV60801.94898.axf

JavaScript Object Notation format (JSON) in row-major order
http://www.bom.gov.au/fwo/IDV60801/IDV60801.94898.json

Data quality

Most of these data are generated automatically and are frequently updated. Quality checks on data are not normally performed. It is possible for incorrect values to appear. Refer to information at About Latest Weather Observations and please check the disclaimer before using these data.